createdAt,value
2022-08-22T00:01:06.841Z,62.8
2022-08-22T00:02:44.826Z,45.5
2022-08-22T00:07:06.865Z,62.5
2022-08-22T00:13:06.963Z,62.6
2022-08-22T00:19:06.868Z,62.2
2022-08-22T00:25:06.849Z,61.9
2022-08-22T00:31:06.866Z,61.5
2022-08-22T00:37:06.910Z,60.9
2022-08-22T00:43:06.863Z,61.2
2022-08-22T00:49:06.935Z,61.2
2022-08-22T00:55:06.885Z,61.1
2022-08-22T01:01:07.031Z,61.8
2022-08-22T01:07:07.180Z,62.3
2022-08-22T01:13:06.880Z,62.6
2022-08-22T01:19:06.874Z,63.5
2022-08-22T01:25:06.886Z,63.2
2022-08-22T01:31:06.906Z,64.3
2022-08-22T01:37:06.902Z,64.5
2022-08-22T01:43:06.899Z,64.9
2022-08-22T01:49:06.880Z,65.3
2022-08-22T01:55:06.884Z,65.3
2022-08-22T02:01:06.922Z,66.9
2022-08-22T02:07:06.892Z,67.2
2022-08-22T02:13:06.892Z,68
2022-08-22T02:19:06.878Z,68.5
2022-08-22T02:25:06.908Z,69.8
2022-08-22T02:31:06.888Z,69.8
2022-08-22T02:37:06.909Z,70.1
2022-08-22T02:43:06.887Z,69.8
2022-08-22T02:49:06.902Z,69.5
2022-08-22T02:55:06.884Z,70.3
2022-08-22T03:01:06.933Z,71.5
2022-08-22T03:07:07.006Z,72.6
2022-08-22T03:13:06.903Z,73.2
2022-08-22T03:19:06.912Z,72
2022-08-22T03:25:06.894Z,72.4
2022-08-22T03:31:06.965Z,71.6
2022-08-22T03:37:06.920Z,72.2
2022-08-22T03:43:06.904Z,72.1
2022-08-22T03:49:06.910Z,71.8
2022-08-22T03:55:06.900Z,71.4
2022-08-22T04:01:06.961Z,72.3
2022-08-22T04:07:14.263Z,73.2
2022-08-22T04:13:06.908Z,72.8
2022-08-22T04:19:08.021Z,72.7
2022-08-22T04:25:08.136Z,72.9
2022-08-22T04:31:06.912Z,72.6
2022-08-22T04:37:06.934Z,73.4
2022-08-22T04:43:06.925Z,74.1
2022-08-22T04:49:06.899Z,74.2
2022-08-22T04:55:06.902Z,74.6
2022-08-22T05:01:06.907Z,74.1
2022-08-22T05:07:06.935Z,75.4
2022-08-22T05:13:06.930Z,76.7
2022-08-22T05:19:06.908Z,78.4
2022-08-22T05:25:06.925Z,78
2022-08-22T05:31:06.927Z,76.2
2022-08-22T05:37:08.194Z,74
2022-08-22T05:43:06.951Z,72.2
2022-08-22T05:49:06.908Z,73.9
2022-08-22T05:55:06.942Z,73.2
2022-08-22T06:01:06.911Z,71.7
2022-08-22T06:07:06.926Z,69.9
2022-08-22T06:13:11.413Z,70.7
2022-08-22T06:19:19.548Z,69.3
2022-08-22T06:25:06.918Z,68.1
2022-08-22T06:31:06.925Z,64.3
2022-08-22T06:37:06.931Z,60.4
2022-08-22T06:43:06.947Z,50
2022-08-22T06:49:06.944Z,44.5
2022-08-22T06:55:06.933Z,39.6
2022-08-22T07:01:11.363Z,38.1
2022-08-22T07:07:06.955Z,36.1
2022-08-22T07:13:06.955Z,36.6
2022-08-22T07:19:06.944Z,35.8
2022-08-22T07:25:06.959Z,30.3
2022-08-22T07:31:06.958Z,30.7
2022-08-22T07:37:06.996Z,31
2022-08-22T07:43:06.959Z,29.4
2022-08-22T07:49:09.541Z,25.9
2022-08-22T07:55:06.989Z,25.6
2022-08-22T08:01:07.018Z,26.2
2022-08-22T08:07:07.004Z,25.1
2022-08-22T08:13:06.987Z,24.9
2022-08-22T08:19:06.980Z,23.8
2022-08-22T08:25:07.011Z,26.1
2022-08-22T08:31:06.995Z,23.5
2022-08-22T08:37:06.989Z,23.8
2022-08-22T08:43:10.818Z,23.1
2022-08-22T08:49:07.013Z,20.6
2022-08-22T08:55:19.991Z,23.7
2022-08-22T09:01:07.081Z,21.8
2022-08-22T09:07:07.016Z,21.7
2022-08-22T09:13:11.627Z,23.2
2022-08-22T09:19:07.004Z,23.3
2022-08-22T09:25:07.019Z,23
2022-08-22T09:31:16.966Z,22.1
2022-08-22T09:37:07.020Z,22.9
2022-08-22T09:43:07.049Z,21.9
2022-08-22T09:49:07.021Z,21.9
2022-08-22T09:55:08.124Z,21.8
2022-08-22T10:01:07.093Z,21.9
2022-08-22T10:07:11.185Z,20.7
2022-08-22T10:13:10.427Z,18.6
2022-08-22T10:19:07.044Z,23.2
2022-08-22T10:25:07.048Z,25
2022-08-22T10:31:07.064Z,27.8
2022-08-22T10:37:07.049Z,26
2022-08-22T10:43:07.089Z,26.8
2022-08-22T10:49:07.972Z,28.1
2022-08-22T10:55:09.965Z,28
2022-08-22T11:01:37.227Z,26
2022-08-22T11:07:07.706Z,24.4
2022-08-22T11:13:07.070Z,24.2
2022-08-22T11:19:15.003Z,24.9
2022-08-22T11:25:07.121Z,24.8
2022-08-22T11:31:07.544Z,25
2022-08-22T11:37:11.474Z,25.8
2022-08-22T11:43:10.641Z,26.3
2022-08-22T11:49:07.074Z,27.6
2022-08-22T11:55:07.349Z,28
2022-08-22T12:01:09.680Z,27.2
2022-08-22T12:07:07.082Z,26.8
2022-08-22T12:13:07.112Z,27.8
2022-08-22T12:19:07.109Z,26.6
2022-08-22T12:25:07.144Z,27.2
2022-08-22T12:31:07.123Z,25.5
2022-08-22T12:37:07.103Z,26.1
2022-08-22T12:43:07.091Z,27.4
2022-08-22T12:49:07.851Z,27.5
2022-08-22T12:55:07.110Z,25.6
2022-08-22T13:01:07.222Z,25.4
2022-08-22T13:07:07.122Z,25.4
2022-08-22T13:13:12.086Z,25.1
2022-08-22T13:19:07.629Z,25
2022-08-22T13:25:08.668Z,25.5
2022-08-22T13:31:07.139Z,26
2022-08-22T13:37:07.152Z,25.8
2022-08-22T13:43:07.121Z,25.6
2022-08-22T13:49:07.777Z,23.4
2022-08-22T13:55:12.591Z,23.4
2022-08-22T14:01:07.151Z,24.7
2022-08-22T14:07:07.182Z,25.5
2022-08-22T14:13:07.136Z,25.5
2022-08-22T14:19:07.153Z,26.3
2022-08-22T14:25:07.383Z,25.1
2022-08-22T14:31:07.172Z,26.9
2022-08-22T14:37:07.181Z,26.9
2022-08-22T14:43:07.136Z,28.7
2022-08-22T14:49:07.138Z,29.1
2022-08-22T14:55:08.400Z,29.8
2022-08-22T15:01:09.805Z,29.1
2022-08-22T15:07:07.145Z,30.1
2022-08-22T15:13:07.162Z,29.5
2022-08-22T15:19:07.148Z,28.8
2022-08-22T15:25:07.178Z,28.3
2022-08-22T15:31:07.245Z,29.2
2022-08-22T15:37:09.111Z,29.8
2022-08-22T15:43:07.171Z,30.3
2022-08-22T15:49:07.217Z,30.2
2022-08-22T15:55:07.184Z,30.2
2022-08-22T16:01:19.196Z,30.4
2022-08-22T16:07:09.378Z,30.9
2022-08-22T16:13:07.187Z,30.4
2022-08-22T16:19:07.180Z,30.2
2022-08-22T16:25:10.155Z,30.5
2022-08-22T16:31:07.193Z,30.3
2022-08-22T16:37:07.214Z,30.9
2022-08-22T16:43:07.237Z,31.8
2022-08-22T16:49:07.208Z,31.1
2022-08-22T16:55:07.209Z,32.3
2022-08-22T17:01:07.317Z,32.4
2022-08-22T17:07:07.213Z,32
2022-08-22T17:13:07.225Z,30.9
2022-08-22T17:19:07.214Z,32.3
2022-08-22T17:25:07.195Z,31.4
2022-08-22T17:31:07.228Z,32.5
2022-08-22T17:37:07.242Z,32.8
2022-08-22T17:43:07.263Z,32.9
2022-08-22T17:49:07.243Z,32.8
2022-08-22T17:55:07.219Z,33.3
2022-08-22T18:01:07.321Z,33.8
2022-08-22T18:07:07.243Z,33.8
2022-08-22T18:13:07.652Z,33.7
2022-08-22T18:19:07.373Z,34.2
2022-08-22T18:25:07.223Z,34.5
2022-08-22T18:31:07.227Z,34.4
2022-08-22T18:37:07.232Z,34.6
2022-08-22T18:43:07.251Z,34.9
2022-08-22T18:49:15.856Z,35.1
2022-08-22T18:55:07.243Z,34.9
2022-08-22T19:01:07.299Z,35.5
2022-08-22T19:07:07.223Z,35.9
2022-08-22T19:13:07.244Z,36.3
2022-08-22T19:19:07.254Z,36.8
2022-08-22T19:25:08.939Z,36.8
2022-08-22T19:31:07.287Z,37.5
2022-08-22T19:37:07.280Z,37.8
2022-08-22T19:43:07.252Z,38.2
2022-08-22T19:49:07.248Z,38.3
2022-08-22T19:55:07.285Z,38.9
2022-08-22T20:01:07.329Z,39.5
2022-08-22T20:07:14.846Z,39.8
2022-08-22T20:13:07.724Z,40
2022-08-22T20:19:09.335Z,40.4
2022-08-22T20:25:07.305Z,40.9
2022-08-22T20:31:07.263Z,41.5
2022-08-22T20:37:28.989Z,41.8
2022-08-22T20:43:10.700Z,42.2
2022-08-22T20:49:07.307Z,42.6
2022-08-22T20:55:07.270Z,42.9
2022-08-22T21:01:07.379Z,43.1
2022-08-22T21:07:07.293Z,43
2022-08-22T21:13:07.295Z,43.1
2022-08-22T21:19:07.281Z,43.1
2022-08-22T21:25:07.291Z,43.1
2022-08-22T21:31:07.294Z,43.6
2022-08-22T21:37:07.330Z,44
2022-08-22T21:43:07.296Z,44.7
2022-08-22T21:49:07.300Z,44.6
2022-08-22T21:55:07.288Z,45
2022-08-22T22:01:07.399Z,45.2
2022-08-22T22:07:07.326Z,45.7
2022-08-22T22:13:07.311Z,45.6
2022-08-22T22:19:07.304Z,45.5
2022-08-22T22:25:07.305Z,45.5
2022-08-22T22:31:07.299Z,45.8
2022-08-22T22:37:07.301Z,45.6
2022-08-22T22:43:07.301Z,46.5
2022-08-22T22:49:07.313Z,48.4
2022-08-22T22:55:07.319Z,47.5
2022-08-22T23:01:07.384Z,46.8
2022-08-22T23:07:07.315Z,47.1
2022-08-22T23:13:07.329Z,48.5
2022-08-22T23:19:07.376Z,49.2
2022-08-22T23:25:07.312Z,49.4
2022-08-22T23:31:07.326Z,50.5
2022-08-22T23:37:07.341Z,50.9
2022-08-22T23:43:07.340Z,52.7
2022-08-22T23:49:07.333Z,50.5
2022-08-22T23:55:07.345Z,51.1
